METAR Data
IDs: Format: Raw Decoded Include TAF

Data at: 1448 UTC 10 Aug 2022

KO69 101435Z AUTO 30003KT 3SM BR BKN002 13/13 A3007 RMK A01
KO69 101415Z AUTO 00000KT 1/2SM BR OVC002 13/13 A3007 RMK A01
KO69 101355Z AUTO 00000KT M1/4SM FG OVC002 13/13 A3006 RMK A01
KO69 101335Z AUTO 00000KT M1/4SM FG OVC002 13/13 A3006 RMK A01
KO69 101315Z AUTO 00000KT 1/2SM FG OVC003 13/13 A3005 RMK A01
KO69 101255Z AUTO 00000KT 8SM OVC004 12/12 A3004 RMK A01
KO69 101235Z AUTO 00000KT 10SM BKN004 OVC021 11/11 A3004 RMK A01
KO69 101215Z AUTO 00000KT 10SM SCT004 BKN022 12/11 A3003 RMK A01
KO69 101155Z AUTO 00000KT 10SM BKN023 12/12 A3003 RMK A01
KO69 101135Z AUTO 00000KT 10SM SCT024 SCT029 12/12 A3003 RMK A01
KO69 101115Z AUTO 00000KT 10SM SCT006 SCT019 BKN026 13/12 A3003 RMK A01
KO69 101055Z AUTO 00000KT 10SM OVC006 13/13 A3003 RMK A01
KO69 101035Z AUTO 00000KT 10SM BKN008 BKN020 OVC025 14/13 A3003 RMK A01
KO69 101015Z AUTO 30003KT 10SM OVC008 15/14 A3003 RMK A01
KO69 100955Z AUTO VRB04KT 10SM OVC008 15/14 A3003 RMK A01
KO69 100935Z AUTO 00000KT 10SM OVC008 15/14 A3003 RMK A01
KO69 100915Z AUTO 33003KT 10SM OVC007 15/14 A3003 RMK A01
KO69 100855Z AUTO VRB05KT 10SM OVC007 15/14 A3003 RMK A01
KO69 100835Z AUTO VRB05KT 10SM OVC007 15/14 A3003 RMK A01
KO69 100815Z AUTO VRB05KT 10SM OVC006 15/14 A3004 RMK A01
KO69 100755Z AUTO 30004G11KT 10SM OVC006 15/14 A3004 RMK A01
KO69 100735Z AUTO VRB05KT 10SM OVC007 15/14 A3003 RMK A01
KO69 100715Z AUTO VRB06KT 10SM OVC007 15/14 A3003 RMK A01
KO69 100655Z AUTO VRB04KT 10SM BKN008 BKN016 OVC022 15/14 A3003 RMK A01
KO69 100635Z AUTO 29006KT 10SM BKN009 BKN015 OVC022 15/14 A3003 RMK A01
KO69 100615Z AUTO VRB03KT 10SM BKN009 BKN020 OVC042 15/14 A3003 RMK A01
KO69 100555Z AUTO 32005KT 10SM FEW011 FEW020 SCT043 15/14 A3002 RMK A01
KO69 100535Z AUTO 30005KT 10SM CLR 15/13 A3002 RMK A01
KO69 100515Z AUTO VRB03KT 10SM CLR 15/13 A3002 RMK A01
KO69 100450Z AUTO VRB03G13KT 10SM CLR 16/13 A3001 RMK A01
KO69 100430Z AUTO 28008KT 10SM CLR 16/13 A3000 RMK A01
KO69 100415Z AUTO 28007KT 10SM CLR 16/13 A3000 RMK A01
KO69 100355Z AUTO VRB04KT 10SM CLR 16/13 A3000 RMK A01
KO69 100335Z AUTO 29007KT 10SM FEW043 16/13 A3000 RMK A01
KO69 100315Z AUTO 27010KT 10SM CLR 17/13 A3000 RMK A01
KO69 100255Z AUTO 27010KT 10SM CLR 18/13 A2999 RMK A01
KO69 100235Z AUTO 27008KT 10SM CLR 18/13 A2999 RMK A01
KO69 100215Z AUTO 27012G17KT 10SM CLR 19/13 A2999 RMK A01
KO69 100155Z AUTO 27012KT 10SM CLR 19/13 A2998 RMK A01
KO69 100135Z AUTO 28011G17KT 10SM CLR 20/12 A2998 RMK A01
KO69 100115Z AUTO 29009G19KT 250V310 10SM CLR 21/12 A2999 RMK A01
KO69 100055Z AUTO 28014KT 10SM CLR 21/12 A2999 RMK A01
KO69 100035Z AUTO 27015G21KT 10SM CLR 22/12 A2998 RMK A01
KO69 100010Z AUTO 28014G19KT 10SM CLR 22/12 A2998 RMK A01
KO69 092355Z AUTO 28015G20KT 10SM CLR 22/12 A2998 RMK A01
KO69 092335Z AUTO 29010G19KT 270V340 10SM CLR 22/12 A2998 RMK A01
KO69 092315Z AUTO 27014KT 10SM CLR 22/12 A2999 RMK A01
KO69 092255Z AUTO 27015KT 10SM CLR 23/13 A2999 RMK A01
KO69 092235Z AUTO 29010G16KT 260V330 10SM CLR 24/13 A2999 RMK A01
KO69 092215Z AUTO 29009G19KT 260V330 10SM CLR 24/12 A2998 RMK A01
KO69 092155Z AUTO 28013G18KT 10SM CLR 24/11 A2998 RMK A01
KO69 092135Z AUTO 28012KT 10SM CLR 24/11 A2999 RMK A01
KO69 092115Z AUTO 27012KT 10SM CLR 24/11 A2999 RMK A01
KO69 092055Z AUTO 27011G20KT 240V300 10SM CLR 24/11 A2999 RMK A01
KO69 092035Z AUTO 28012KT 10SM CLR 24/11 A2999 RMK A01
KO69 092015Z AUTO 29007G14KT 260V320 10SM CLR 24/11 A2999 RMK A01
KO69 091955Z AUTO 25013KT 10SM CLR 24/11 A2999 RMK A01
KO69 091935Z AUTO 27010G15KT 10SM CLR 23/11 A3000 RMK A01
KO69 091915Z AUTO 31007G14KT 270V350 10SM CLR 23/12 A3000 RMK A01
KO69 091855Z AUTO 28010G17KT 10SM CLR 22/12 A3000 RMK A01
KO69 091835Z AUTO 27008G16KT 10SM CLR 23/11 A3000 RMK A01
KO69 091815Z AUTO 30008G16KT 10SM CLR 23/12 A3000 RMK A01
KO69 091755Z AUTO 26010G17KT 10SM CLR 22/12 A3000 RMK A01
KO69 091735Z AUTO 26010KT 10SM CLR 22/13 A2999 RMK A01
KO69 091715Z AUTO 27008G14KT 10SM CLR 21/13 A2999 RMK A01
KO69 091655Z AUTO 29005G10KT 10SM CLR 20/13 A2999 RMK A01
KO69 091635Z AUTO VRB06G11KT 10SM CLR 19/13 A3000 RMK A01
KO69 091615Z AUTO 30007KT 10SM CLR 18/13 A3000 RMK A01
KO69 091555Z AUTO 29005KT 10SM CLR 17/13 A3000 RMK A01
KO69 091530Z AUTO 32004KT 10SM CLR 16/13 A3000 RMK A01
KO69 091515Z AUTO VRB05KT 10SM CLR 15/13 A3000 RMK A01
KO69 091455Z AUTO 29005KT 10SM CLR 14/13 A3000 RMK A01
KO69 091435Z AUTO VRB04KT 10SM CLR 14/12 A2999 RMK A01
KO69 091415Z AUTO 00000KT 10SM CLR 13/12 A2999 RMK A01
KO69 091355Z AUTO 32003KT 10SM FEW009 13/12 A2998 RMK A01
KO69 091335Z AUTO 00000KT 10SM FEW009 12/12 A2998 RMK A01
KO69 091315Z AUTO 00000KT 10SM FEW008 FEW019 FEW028 12/12 A2998 RMK A01
KO69 091255Z AUTO VRB03KT 10SM FEW007 SCT019 SCT028 13/12 A2997 RMK A01
KO69 091235Z AUTO 33004KT 10SM SCT006 BKN019 BKN028 13/12 A2997 RMK A01
KO69 091215Z AUTO 32004KT 10SM FEW007 FEW019 SCT025 13/12 A2997 RMK A01
KO69 091155Z AUTO 33003KT 10SM FEW019 FEW024 12/12 A2997 RMK A01
KO69 091135Z AUTO 32003KT 10SM SCT020 SCT027 SCT033 13/12 A2997 RMK A01
KO69 091110Z AUTO 31003KT 10SM FEW009 SCT020 SCT027 13/12 A2996 RMK A01
KO69 091055Z AUTO 33004KT 10SM FEW022 13/12 A2997 RMK A01
KO69 091030Z AUTO 33004KT 10SM FEW021 FEW027 13/12 A2997 RMK A01
KO69 091015Z AUTO 32004KT 10SM FEW011 SCT022 SCT030 13/12 A2997 RMK A01
KO69 090955Z AUTO 34003KT 10SM SCT011 SCT032 13/12 A2997 RMK A01
KO69 090935Z AUTO 33003KT 10SM BKN011 BKN029 13/13 A2997 RMK A01
KO69 090915Z AUTO 33004KT 10SM FEW022 FEW029 13/13 A2997 RMK A01
KO69 090855Z AUTO 00000KT 10SM FEW024 13/12 A2997 RMK A01
KO69 090835Z AUTO 33003KT 10SM FEW022 13/12 A2997 RMK A01
KO69 090815Z AUTO 00000KT 10SM FEW022 13/13 A2997 RMK A01
KO69 090755Z AUTO 35003KT 10SM FEW023 13/12 A2998 RMK A01
KO69 090730Z AUTO 00000KT 10SM CLR 13/12 A2998 RMK A01
KO69 090715Z AUTO 00000KT 10SM FEW024 14/13 A2998 RMK A01
KO69 090655Z AUTO 33003KT 5SM BR FEW012 SCT024 SCT032 14/13 A2998 RMK A01
KO69 090635Z AUTO 33004KT 5SM BR BKN012 BKN018 BKN026 14/13 A2997 RMK A01
KO69 090615Z AUTO 32003KT 5SM BR SCT011 14/13 A2997 RMK A01
KO69 090555Z AUTO 31003KT 10SM FEW012 15/13 A2998 RMK A01
KO69 090535Z AUTO 31003KT 10SM FEW013 15/13 A2999 RMK A01
KO69 090515Z AUTO VRB05KT 10SM CLR 15/13 A2998 RMK A01
KO69 090455Z AUTO VRB04KT 10SM FEW014 15/13 A2998 RMK A01
KO69 090435Z AUTO VRB04KT 10SM FEW014 15/13 A2998 RMK A01
KO69 090415Z AUTO 31003KT 10SM CLR 15/13 A2998 RMK A01
KO69 090355Z AUTO 30004G10KT 10SM FEW015 16/13 A2998 RMK A01
KO69 090335Z AUTO VRB04KT 10SM FEW016 16/13 A2998 RMK A01
KO69 090315Z AUTO 29008G14KT 10SM CLR 17/13 A2997 RMK A01
KO69 090255Z AUTO 28009KT 240V310 10SM CLR 17/13 A2997 RMK A01